Terminal Aerodrome Forecast
Issued by NWS

Home | Current Version | Previous Version | Text Only | Print | Product List | Glossary On
Versions: 1 2 3 4 5 6 7 8 9 10 11 12 13
273
FTUS43 KEAX 192320
TAFMKC
TAF
KMKC 192320Z 2000/2024 15012G20KT P6SM FEW250
     FM200500 19013KT P6SM FEW250 WS020/20040KT
     FM201300 22009KT P6SM SCT035 BKN070=

USA.gov is the U.S. government's official web portal to all federal, state and local government web resources and services.